KPNE/PNE METAR and TAF weather

Enter ICAO airport designator
Station Type Date Time Source
KPNE METAR 2019/10/18 10:54 UTC NOAA

KPNE 181054Z 24006KT 10SM BKN036 09/03 A2982 RMK AO2 SLP098 T00890033


Station Type Date Time Source
KPNE Decoded METAR 2019/10/18 10:54 UTC NOAA

N.E. PHILADELPHIA AIRPORT, PA, United States (KPNE) 40-05N 075-01W 28M
Oct 18, 2019 - 06:54 AM EDT / 2019.10.18 1054 UTC
Wind: from the WSW (240 degrees) at 7 MPH (6 KT):0
Visibility: 10 mile(s):0
Sky conditions: mostly cloudy
Temperature: 48.0 F (8.9 C)
Dew Point: 37.9 F (3.3 C)
Relative Humidity: 67%
Pressure (altimeter): 29.82 in. Hg (1009 hPa)
ob: KPNE 181054Z 24006KT 10SM BKN036 09/03 A2982 RMK AO2 SLP098 T00890033
cycle: 11

Station Type Date Time Source
KPNE TAF 2019/10/18 06:30 UTC NOAA

TAF KPNE 180528Z 1806/1906 29009KT P6SM SCT035
FM181500 32012G22KT P6SM SCT045
FM182200 33009KT P6SM FEW250
FM190100 33005KT P6SM FEW250

Example: see airport list